createdAt,value
2023-05-19T00:00:30.803Z,12.80
2023-05-19T00:03:00.353Z,12.90
2023-05-19T00:05:30.369Z,15.40
2023-05-19T00:07:59.939Z,14.10
2023-05-19T00:10:31.569Z,13.30
2023-05-19T00:13:00.589Z,12.00
2023-05-19T00:15:28.493Z,12.30
2023-05-19T00:17:56.430Z,11.90
2023-05-19T00:20:24.162Z,11.30
2023-05-19T00:22:51.767Z,12.80
2023-05-19T00:25:19.349Z,11.90
2023-05-19T00:27:46.841Z,12.40
2023-05-19T00:30:14.907Z,13.20
2023-05-19T00:32:43.499Z,13.70
2023-05-19T00:35:11.224Z,15.30
2023-05-19T00:37:39.080Z,10.50
2023-05-19T00:40:09.354Z,10.50
2023-05-19T00:42:37.326Z,10.50
2023-05-19T00:45:05.765Z,14.30
2023-05-19T00:47:33.910Z,16.40
2023-05-19T00:50:01.628Z,12.40
2023-05-19T00:52:29.780Z,13.10
2023-05-19T00:54:57.284Z,9.80
2023-05-19T00:57:26.911Z,11.00
2023-05-19T00:59:54.396Z,10.40
2023-05-19T01:02:22.171Z,11.10
2023-05-19T01:04:50.422Z,11.90
2023-05-19T01:07:18.559Z,10.90
2023-05-19T01:09:46.159Z,12.20
2023-05-19T01:12:14.097Z,8.40
2023-05-19T01:14:42.455Z,11.50
2023-05-19T01:17:14.141Z,8.90
2023-05-19T01:19:46.420Z,11.30
2023-05-19T01:22:30.979Z,9.20
2023-05-19T01:25:20.186Z,12.00
2023-05-19T01:27:56.910Z,11.30
2023-05-19T01:30:38.234Z,12.70
2023-05-19T01:33:07.843Z,10.10
2023-05-19T01:35:37.308Z,9.30
2023-05-19T01:38:06.160Z,10.50
2023-05-19T01:40:34.592Z,8.00
2023-05-19T01:43:02.457Z,8.50
2023-05-19T01:45:31.007Z,10.30
2023-05-19T01:48:00.181Z,10.10
2023-05-19T01:50:28.432Z,8.40
2023-05-19T01:52:55.979Z,11.10
2023-05-19T01:55:23.619Z,9.50
2023-05-19T01:58:02.645Z,8.80
2023-05-19T02:00:51.795Z,11.20
2023-05-19T02:04:04.110Z,14.50
2023-05-19T02:07:01.552Z,9.60
2023-05-19T02:09:41.757Z,12.00
2023-05-19T02:12:21.564Z,12.30
2023-05-19T02:14:53.100Z,9.30
2023-05-19T02:17:20.562Z,10.90
2023-05-19T02:19:48.199Z,14.50
2023-05-19T02:22:16.008Z,11.00
2023-05-19T02:24:44.880Z,10.50
2023-05-19T02:27:12.571Z,11.70
2023-05-19T02:29:40.036Z,11.50
2023-05-19T02:32:08.101Z,11.10
2023-05-19T02:34:35.704Z,10.50
2023-05-19T02:37:07.364Z,11.10
2023-05-19T02:39:35.184Z,13.80
2023-05-19T02:42:03.847Z,8.40
2023-05-19T02:44:31.246Z,12.90
2023-05-19T02:46:58.704Z,11.50
2023-05-19T02:49:26.415Z,9.40
2023-05-19T02:51:55.383Z,12.60
2023-05-19T02:54:22.835Z,9.50
2023-05-19T02:56:50.389Z,13.20
2023-05-19T02:59:18.197Z,11.40
2023-05-19T03:01:47.320Z,11.70
2023-05-19T03:04:14.879Z,11.50
2023-05-19T03:06:45.340Z,10.80
2023-05-19T03:09:16.553Z,11.50
2023-05-19T03:14:13.715Z,11.10
2023-05-19T03:16:42.265Z,7.70
2023-05-19T03:19:10.135Z,9.80
2023-05-19T03:21:37.746Z,9.50
2023-05-19T03:24:05.526Z,11.20
2023-05-19T03:26:33.868Z,17.10
2023-05-19T03:29:01.515Z,11.80
2023-05-19T03:31:31.716Z,10.00
2023-05-19T03:33:59.900Z,10.50
2023-05-19T03:36:31.792Z,10.50
2023-05-19T03:38:59.479Z,12.50
2023-05-19T03:41:27.192Z,11.70
2023-05-19T03:43:54.955Z,10.60
2023-05-19T03:46:22.571Z,11.10
2023-05-19T03:49:18.679Z,8.40
2023-05-19T03:51:58.638Z,8.30
2023-05-19T03:54:34.500Z,9.90
2023-05-19T03:57:02.090Z,14.30
2023-05-19T03:59:31.711Z,9.90
2023-05-19T04:01:59.286Z,9.30
2023-05-19T04:04:28.125Z,8.60
2023-05-19T04:06:56.098Z,7.90
2023-05-19T04:09:26.607Z,10.20
2023-05-19T04:11:56.006Z,11.90
2023-05-19T04:14:25.109Z,8.50
2023-05-19T04:16:53.709Z,9.00
2023-05-19T04:19:21.149Z,11.60
2023-05-19T04:21:48.973Z,10.20
2023-05-19T04:24:16.527Z,9.60
2023-05-19T04:26:47.065Z,9.20
2023-05-19T04:29:17.560Z,9.20
2023-05-19T04:31:45.167Z,8.80
2023-05-19T04:34:12.696Z,9.80
2023-05-19T04:36:40.128Z,8.70
2023-05-19T04:39:09.823Z,13.00
2023-05-19T04:41:40.197Z,10.50
2023-05-19T04:44:08.817Z,9.50
2023-05-19T04:46:37.129Z,10.10
2023-05-19T04:49:05.564Z,11.30
2023-05-19T04:51:32.947Z,8.30
2023-05-19T04:54:01.462Z,6.90
2023-05-19T04:56:29.748Z,6.90
2023-05-19T04:58:57.626Z,7.90
2023-05-19T05:01:26.275Z,9.20
2023-05-19T05:03:55.972Z,10.00
2023-05-19T05:06:23.564Z,12.00
2023-05-19T05:08:52.011Z,10.80
2023-05-19T05:11:20.350Z,10.60
2023-05-19T05:13:48.419Z,8.90
2023-05-19T05:16:16.602Z,8.40
2023-05-19T05:18:46.599Z,10.20
2023-05-19T05:21:15.529Z,11.10
2023-05-19T05:23:43.925Z,9.50
2023-05-19T05:26:17.218Z,10.40
2023-05-19T05:28:45.471Z,11.40
2023-05-19T05:31:12.876Z,7.60
2023-05-19T05:33:41.192Z,7.30
2023-05-19T05:36:09.452Z,9.00
2023-05-19T05:38:41.432Z,9.50
2023-05-19T05:41:09.095Z,9.00
2023-05-19T05:43:37.295Z,9.50
2023-05-19T05:46:04.912Z,14.70
2023-05-19T05:48:32.969Z,9.60
2023-05-19T05:51:00.838Z,12.10
2023-05-19T05:53:32.048Z,7.60
2023-05-19T05:56:00.176Z,7.80
2023-05-19T05:58:36.291Z,8.40
2023-05-19T06:01:05.114Z,10.60
2023-05-19T06:03:33.575Z,6.40
2023-05-19T06:06:05.180Z,7.50
2023-05-19T06:08:32.974Z,8.80
2023-05-19T06:11:00.602Z,9.10
2023-05-19T06:13:29.950Z,10.60
2023-05-19T06:15:59.226Z,6.40
2023-05-19T06:18:32.774Z,9.80
2023-05-19T06:21:01.512Z,12.60
2023-05-19T06:23:30.530Z,6.60
2023-05-19T06:25:58.298Z,10.00
2023-05-19T06:28:25.788Z,8.80
2023-05-19T06:30:53.437Z,5.90
2023-05-19T06:33:28.994Z,8.90
2023-05-19T06:35:57.223Z,8.40
2023-05-19T06:38:25.455Z,11.30
2023-05-19T06:40:52.909Z,6.60
2023-05-19T06:43:20.814Z,9.20
2023-05-19T06:45:59.352Z,15.30
2023-05-19T06:48:27.110Z,5.60
2023-05-19T06:50:54.917Z,8.50
2023-05-19T06:53:22.905Z,8.80
2023-05-19T06:55:59.298Z,9.80
2023-05-19T06:58:29.266Z,8.00
2023-05-19T07:00:57.442Z,7.60
2023-05-19T07:03:27.021Z,8.00
2023-05-19T07:39:03.368Z,10.50
2023-05-19T07:41:31.432Z,12.10
2023-05-19T07:43:59.096Z,8.40
2023-05-19T07:46:26.840Z,6.10
2023-05-19T07:48:55.804Z,8.70
2023-05-19T07:51:23.315Z,7.80
2023-05-19T07:53:51.769Z,13.80
2023-05-19T07:56:19.662Z,8.20
2023-05-19T07:58:50.252Z,9.70
2023-05-19T08:01:17.749Z,7.40
2023-05-19T08:03:47.736Z,10.40
2023-05-19T08:06:15.270Z,8.10
2023-05-19T08:08:44.034Z,10.20
2023-05-19T08:11:12.385Z,8.80
2023-05-19T08:13:40.041Z,6.90
2023-05-19T08:16:07.735Z,14.50
2023-05-19T08:18:35.570Z,9.80
2023-05-19T08:21:03.137Z,8.20
2023-05-19T08:23:30.540Z,10.60
2023-05-19T08:25:58.175Z,8.30
2023-05-19T08:28:25.773Z,7.80
2023-05-19T08:30:53.267Z,10.60
2023-05-19T08:33:23.724Z,7.10
2023-05-19T08:35:51.434Z,12.10
2023-05-19T08:38:18.932Z,10.60
2023-05-19T08:40:47.112Z,8.40
2023-05-19T08:43:14.779Z,8.30
2023-05-19T08:45:48.663Z,9.60
2023-05-19T08:48:17.666Z,10.00
2023-05-19T08:50:51.086Z,11.60
2023-05-19T08:53:33.271Z,9.50
2023-05-19T08:56:11.035Z,8.90
2023-05-19T08:58:44.339Z,10.20
2023-05-19T09:01:14.671Z,12.40
2023-05-19T09:03:42.678Z,12.30
2023-05-19T09:06:13.030Z,8.90
2023-05-19T09:08:41.845Z,9.00
2023-05-19T09:11:09.851Z,10.10
2023-05-19T09:13:37.492Z,12.30
2023-05-19T09:16:05.463Z,14.30
2023-05-19T09:18:33.188Z,10.30
2023-05-19T09:21:03.220Z,12.60
2023-05-19T09:23:33.894Z,11.90
2023-05-19T09:26:08.197Z,12.20
2023-05-19T09:28:36.855Z,10.20
2023-05-19T09:31:09.791Z,15.30
2023-05-19T09:33:39.399Z,10.70
2023-05-19T09:36:08.813Z,10.50
2023-05-19T09:38:37.268Z,9.20
2023-05-19T09:41:05.892Z,11.70
2023-05-19T09:43:34.178Z,12.20
2023-05-19T09:46:05.048Z,13.50
2023-05-19T09:48:33.516Z,13.20
2023-05-19T09:51:01.741Z,12.00
2023-05-19T09:53:30.721Z,12.00
2023-05-19T09:55:58.375Z,13.10
2023-05-19T09:58:27.021Z,14.40
2023-05-19T10:00:57.508Z,14.70
2023-05-19T10:03:26.018Z,11.80
2023-05-19T10:05:53.906Z,14.90
2023-05-19T10:08:22.044Z,11.50
2023-05-19T10:10:49.621Z,11.40
2023-05-19T10:13:17.188Z,11.80
2023-05-19T10:15:58.190Z,12.30
2023-05-19T10:18:27.346Z,11.30
2023-05-19T10:20:54.938Z,13.40
2023-05-19T10:23:22.820Z,9.10
2023-05-19T10:25:52.121Z,8.00
2023-05-19T10:28:21.542Z,10.30
2023-05-19T10:30:50.241Z,13.10
2023-05-19T10:33:21.328Z,7.40
2023-05-19T10:36:21.748Z,6.20
2023-05-19T10:38:51.516Z,8.80
2023-05-19T10:41:38.432Z,8.80
2023-05-19T10:44:24.819Z,6.80
2023-05-19T10:46:54.205Z,9.00
2023-05-19T10:49:23.547Z,9.30
2023-05-19T10:51:52.954Z,9.20
2023-05-19T10:54:41.294Z,9.30
2023-05-19T10:57:08.805Z,9.40
2023-05-19T10:59:40.525Z,8.50
2023-05-19T11:02:09.014Z,9.60
2023-05-19T11:04:51.085Z,9.60
2023-05-19T11:07:20.790Z,8.40
2023-05-19T11:09:52.248Z,9.50
2023-05-19T11:12:24.642Z,11.10
2023-05-19T11:14:55.988Z,12.90
2023-05-19T11:17:25.113Z,9.30
2023-05-19T11:19:56.987Z,10.80
2023-05-19T11:22:26.883Z,7.80
2023-05-19T11:24:57.821Z,7.90
2023-05-19T11:27:33.013Z,8.80
2023-05-19T11:30:11.930Z,8.60
2023-05-19T11:32:39.902Z,11.10
2023-05-19T11:35:08.542Z,8.20
2023-05-19T11:37:36.178Z,12.70
2023-05-19T11:40:07.911Z,9.10
2023-05-19T11:42:36.528Z,9.60
2023-05-19T11:45:05.192Z,11.20
2023-05-19T11:47:47.107Z,7.60
2023-05-19T11:50:23.371Z,8.80
2023-05-19T11:52:52.119Z,9.10
2023-05-19T11:55:23.481Z,8.60
2023-05-19T11:58:05.219Z,8.90
2023-05-19T12:00:40.865Z,7.20
2023-05-19T12:03:09.837Z,11.50
2023-05-19T12:05:42.882Z,10.60
2023-05-19T12:08:12.297Z,11.00
2023-05-19T12:10:40.158Z,9.20
2023-05-19T12:13:10.823Z,7.90
2023-05-19T12:15:39.431Z,7.70
2023-05-19T12:18:07.792Z,8.50
2023-05-19T12:20:38.114Z,7.10
2023-05-19T12:23:06.056Z,7.00
2023-05-19T12:25:34.228Z,8.20
2023-05-19T12:28:05.146Z,7.50
2023-05-19T12:30:33.417Z,10.80
2023-05-19T12:33:02.176Z,9.30
2023-05-19T12:35:36.583Z,7.10
2023-05-19T12:38:05.424Z,11.00
2023-05-19T12:40:36.752Z,11.00
2023-05-19T12:45:36.512Z,10.80
2023-05-19T12:48:11.972Z,10.10
2023-05-19T12:50:39.511Z,9.80
2023-05-19T12:53:11.533Z,11.50
2023-05-19T12:55:43.394Z,13.30
2023-05-19T13:00:42.809Z,13.90
2023-05-19T13:03:16.323Z,14.10
2023-05-19T13:05:46.824Z,8.60
2023-05-19T13:08:16.625Z,11.80
2023-05-19T13:10:45.176Z,11.10
2023-05-19T13:13:12.696Z,12.50
2023-05-19T13:15:42.425Z,10.80
2023-05-19T13:18:11.312Z,12.20
2023-05-19T13:20:40.002Z,13.10
2023-05-19T13:23:07.606Z,10.90
2023-05-19T13:25:35.393Z,10.80
2023-05-19T13:28:06.006Z,12.50
2023-05-19T13:30:34.660Z,13.00
2023-05-19T13:33:03.347Z,12.80
2023-05-19T13:35:37.577Z,10.20
2023-05-19T13:38:10.663Z,10.10
2023-05-19T13:40:40.103Z,10.60
2023-05-19T13:43:09.064Z,12.20
2023-05-19T13:45:37.315Z,7.70
2023-05-19T13:48:07.593Z,8.60
2023-05-19T13:50:35.420Z,8.70
2023-05-19T13:53:04.115Z,11.20
2023-05-19T13:55:32.103Z,11.30
2023-05-19T13:57:59.581Z,9.60
2023-05-19T14:00:27.379Z,9.80
2023-05-19T14:02:55.518Z,11.50
2023-05-19T14:05:23.383Z,11.90
2023-05-19T14:07:51.168Z,11.50
2023-05-19T14:10:18.644Z,11.10
2023-05-19T14:13:14.161Z,9.60
2023-05-19T14:15:38.310Z,11.40
2023-05-19T14:18:07.114Z,7.90
2023-05-19T14:20:35.114Z,13.50
2023-05-19T14:23:03.450Z,10.50
2023-05-19T14:25:30.995Z,9.60
2023-05-19T14:27:58.497Z,8.50
2023-05-19T14:30:26.080Z,10.40
2023-05-19T14:32:54.073Z,8.60
2023-05-19T14:35:22.013Z,9.00
2023-05-19T14:37:51.249Z,9.00
2023-05-19T14:40:19.043Z,10.90
2023-05-19T14:42:46.499Z,10.10
2023-05-19T14:45:14.455Z,11.20
2023-05-19T14:47:42.012Z,10.00
2023-05-19T14:50:09.613Z,8.90
2023-05-19T14:52:37.124Z,14.30
2023-05-19T14:55:05.187Z,9.60
2023-05-19T14:57:32.694Z,7.70
2023-05-19T15:00:00.275Z,9.10
2023-05-19T15:02:29.587Z,10.50
2023-05-19T15:04:57.482Z,6.70
2023-05-19T15:07:25.083Z,8.80
2023-05-19T15:09:52.677Z,11.50
2023-05-19T15:12:20.079Z,11.40
2023-05-19T15:14:47.574Z,8.20
2023-05-19T15:17:15.110Z,12.30
2023-05-19T15:19:43.169Z,10.40
2023-05-19T15:22:10.693Z,11.20
2023-05-19T15:24:38.241Z,10.10
2023-05-19T15:27:05.908Z,12.00
2023-05-19T15:29:33.588Z,10.90
2023-05-19T15:32:01.219Z,9.70
2023-05-19T15:34:28.829Z,11.20
2023-05-19T15:36:56.610Z,11.70
2023-05-19T15:39:24.260Z,8.80
2023-05-19T15:41:51.913Z,9.90
2023-05-19T15:44:19.494Z,7.50
2023-05-19T15:46:47.146Z,7.20
2023-05-19T15:49:14.868Z,10.40
2023-05-19T15:51:42.580Z,7.50
2023-05-19T15:54:10.343Z,9.80
2023-05-19T15:56:38.075Z,9.50
2023-05-19T15:59:05.677Z,10.10
2023-05-19T16:01:33.203Z,8.50
2023-05-19T16:04:02.568Z,9.40
2023-05-19T16:06:30.808Z,9.30
2023-05-19T16:08:58.577Z,8.00
2023-05-19T16:11:27.642Z,9.60
2023-05-19T16:13:55.197Z,8.30
2023-05-19T16:16:22.890Z,11.80
2023-05-19T16:18:50.780Z,7.30
2023-05-19T16:21:18.559Z,8.90
2023-05-19T16:23:46.277Z,8.90
2023-05-19T16:26:13.926Z,11.40
2023-05-19T16:28:41.459Z,9.60
2023-05-19T16:31:09.019Z,13.10
2023-05-19T16:33:36.484Z,13.50
2023-05-19T16:36:04.242Z,10.50
2023-05-19T16:38:31.789Z,11.10
2023-05-19T16:40:59.501Z,17.70
2023-05-19T16:43:27.004Z,14.50
2023-05-19T16:45:54.621Z,13.60
2023-05-19T16:48:22.203Z,11.80
2023-05-19T16:50:49.909Z,8.80
2023-05-19T16:53:17.776Z,14.10
2023-05-19T16:55:45.312Z,9.60
2023-05-19T16:58:13.134Z,10.90
2023-05-19T17:00:40.776Z,12.50
2023-05-19T17:03:08.388Z,12.60
2023-05-19T17:05:38.583Z,14.40
2023-05-19T17:08:06.508Z,11.50
2023-05-19T17:10:34.270Z,13.10
2023-05-19T17:13:02.434Z,19.70
2023-05-19T17:15:30.032Z,18.30
2023-05-19T17:17:57.523Z,14.70
2023-05-19T17:20:25.179Z,17.10
2023-05-19T17:22:53.103Z,23.00
2023-05-19T17:25:20.615Z,21.90
2023-05-19T17:27:48.149Z,20.60
2023-05-19T17:30:15.671Z,14.70
2023-05-19T17:32:43.248Z,13.20
2023-05-19T17:35:11.029Z,14.30
2023-05-19T17:37:38.621Z,12.60
2023-05-19T17:40:07.038Z,14.90
2023-05-19T17:42:34.517Z,14.80
2023-05-19T17:45:03.954Z,13.10
2023-05-19T17:47:31.642Z,15.80
2023-05-19T17:49:59.111Z,19.00
2023-05-19T17:52:27.275Z,17.90
2023-05-19T17:54:55.114Z,17.60
2023-05-19T17:57:24.674Z,19.10
2023-05-19T17:59:52.883Z,18.00
2023-05-19T18:02:20.625Z,17.60
2023-05-19T18:04:48.311Z,18.50
2023-05-19T18:07:17.228Z,18.90
2023-05-19T18:09:46.749Z,20.00
2023-05-19T18:12:14.575Z,21.30
2023-05-19T18:14:42.287Z,16.20
2023-05-19T18:17:10.107Z,18.60
2023-05-19T18:19:37.597Z,18.20
2023-05-19T18:22:05.585Z,22.30
2023-05-19T18:24:33.389Z,18.00
2023-05-19T18:27:01.092Z,20.30
2023-05-19T18:29:28.866Z,27.60
2023-05-19T18:31:56.681Z,30.10
2023-05-19T18:34:24.197Z,25.60
2023-05-19T18:36:51.911Z,30.20
2023-05-19T18:39:19.749Z,23.10
2023-05-19T18:41:47.931Z,21.90
2023-05-19T18:44:15.609Z,22.10
2023-05-19T18:46:43.348Z,18.90
2023-05-19T18:49:11.993Z,22.00
2023-05-19T18:51:39.871Z,23.70
2023-05-19T18:54:07.636Z,22.10
2023-05-19T18:56:35.865Z,20.40
2023-05-19T18:59:03.413Z,21.00
2023-05-19T19:01:31.100Z,15.90
2023-05-19T19:03:58.926Z,17.10
2023-05-19T19:06:26.586Z,15.60
2023-05-19T19:08:54.132Z,18.20
2023-05-19T19:11:22.092Z,17.90
2023-05-19T19:13:51.672Z,20.10
2023-05-19T19:16:19.544Z,16.20
2023-05-19T19:18:47.430Z,22.40
2023-05-19T19:21:15.476Z,17.00
2023-05-19T19:23:43.346Z,16.20
2023-05-19T19:26:10.987Z,16.50
2023-05-19T19:28:38.669Z,18.50
2023-05-19T19:31:06.389Z,18.00
2023-05-19T19:33:34.348Z,14.70
2023-05-19T19:36:02.347Z,18.50
2023-05-19T19:38:30.000Z,16.80
2023-05-19T19:40:57.514Z,16.30
2023-05-19T19:43:25.138Z,13.40
2023-05-19T19:46:02.791Z,17.50
2023-05-19T19:48:30.936Z,14.40
2023-05-19T19:50:58.880Z,15.50
2023-05-19T19:53:26.674Z,15.40
2023-05-19T19:56:00.216Z,15.30
2023-05-19T19:58:28.326Z,15.00
2023-05-19T20:01:06.568Z,13.50
2023-05-19T20:03:34.327Z,13.60
2023-05-19T20:06:01.983Z,16.00
2023-05-19T20:08:29.472Z,17.00
2023-05-19T20:10:57.048Z,14.00
2023-05-19T20:13:24.748Z,15.60
2023-05-19T20:15:52.347Z,12.00
2023-05-19T20:18:19.998Z,15.10
2023-05-19T20:20:47.484Z,12.90
2023-05-19T20:23:16.580Z,14.60
2023-05-19T20:26:02.349Z,13.90
2023-05-19T20:28:32.120Z,13.70
2023-05-19T20:30:59.677Z,17.10
2023-05-19T20:33:27.106Z,14.80
2023-05-19T20:35:54.630Z,13.70
2023-05-19T20:38:22.194Z,15.40
2023-05-19T20:40:49.718Z,16.90
2023-05-19T20:43:17.264Z,16.00
2023-05-19T20:45:44.967Z,13.70
2023-05-19T20:48:12.473Z,13.40
2023-05-19T20:50:40.334Z,12.60
2023-05-19T20:53:07.841Z,9.60
2023-05-19T20:55:38.205Z,12.70
2023-05-19T20:58:06.029Z,13.40
2023-05-19T21:00:33.963Z,12.70
2023-05-19T21:03:02.120Z,16.40
2023-05-19T21:05:29.864Z,12.30
2023-05-19T21:07:57.500Z,12.70
2023-05-19T21:10:25.066Z,12.40
2023-05-19T21:12:52.590Z,13.30
2023-05-19T21:15:20.203Z,12.80
2023-05-19T21:17:47.999Z,12.50
2023-05-19T21:20:15.455Z,16.90
2023-05-19T21:22:42.896Z,16.30
2023-05-19T21:25:11.106Z,12.40
2023-05-19T21:27:40.013Z,14.70
2023-05-19T21:30:09.872Z,14.90
2023-05-19T21:32:37.422Z,13.20
2023-05-19T21:35:06.526Z,12.90
2023-05-19T21:37:34.114Z,16.20
2023-05-19T21:40:01.999Z,16.30
2023-05-19T21:42:29.588Z,14.00
2023-05-19T21:44:57.190Z,14.00
2023-05-19T21:47:24.804Z,12.00
2023-05-19T21:49:52.264Z,11.60
2023-05-19T21:52:19.832Z,12.70
2023-05-19T21:54:48.259Z,11.40
2023-05-19T21:57:15.768Z,16.10
2023-05-19T21:59:44.461Z,12.20
2023-05-19T22:02:12.351Z,15.00
2023-05-19T22:04:40.081Z,12.70
2023-05-19T22:07:07.854Z,13.20
2023-05-19T22:09:35.510Z,12.50
2023-05-19T22:12:02.981Z,13.90
2023-05-19T22:14:30.611Z,13.40
2023-05-19T22:16:58.248Z,10.70
2023-05-19T22:19:25.948Z,11.60
2023-05-19T22:22:01.811Z,12.80
2023-05-19T22:24:33.577Z,11.60
2023-05-19T22:27:01.234Z,12.00
2023-05-19T22:29:28.791Z,14.10
2023-05-19T22:31:56.415Z,11.90
2023-05-19T22:34:24.350Z,12.00
2023-05-19T22:36:52.002Z,10.90
2023-05-19T22:39:19.541Z,12.50
2023-05-19T22:41:47.171Z,10.00
2023-05-19T22:44:16.557Z,14.60
2023-05-19T22:46:47.052Z,15.30
2023-05-19T22:49:14.587Z,14.30
2023-05-19T22:51:42.144Z,13.20
2023-05-19T22:54:10.993Z,11.80
2023-05-19T22:56:38.552Z,11.90
2023-05-19T22:59:06.250Z,10.90
2023-05-19T23:01:33.883Z,12.90
2023-05-19T23:04:01.527Z,11.70
2023-05-19T23:06:29.220Z,15.30
2023-05-19T23:09:01.706Z,11.70
2023-05-19T23:11:29.377Z,12.80
2023-05-19T23:13:57.080Z,9.40
2023-05-19T23:16:24.703Z,9.40
2023-05-19T23:18:52.315Z,11.30
2023-05-19T23:21:19.904Z,10.80
2023-05-19T23:23:47.448Z,11.20
2023-05-19T23:26:15.045Z,13.20
2023-05-19T23:28:43.079Z,11.40
2023-05-19T23:31:11.040Z,10.50
2023-05-19T23:33:38.621Z,11.50
2023-05-19T23:36:10.654Z,11.70
2023-05-19T23:38:38.490Z,13.00
2023-05-19T23:41:06.252Z,14.80
2023-05-19T23:43:33.849Z,11.50
2023-05-19T23:46:01.686Z,10.10
2023-05-19T23:48:29.759Z,14.50
2023-05-19T23:50:58.227Z,10.30
2023-05-19T23:53:25.976Z,10.90
2023-05-19T23:55:53.492Z,8.80
2023-05-19T23:58:21.359Z,12.50
